Time;durP1;ratioP1;P1;durP2;ratioP2;P2;SDS_P1;SDS_P2;PMS_P1;PMS_P2;Temp;Humidity;BMP_temperature;BMP_pressure;BME280_temperature;BME280_humidity;BME280_pressure;Samples;Min_cycle;Max_cycle;Signal;HPM_P1;HPM_P2
2023/01/18 00:00:09;;;;;;;382.02;180.85;;;;;;;;;;339972;29;1445;-75
2023/01/18 00:00:19;;;;;;;380.80;177.70;;;;;;;;;;340883;29;857;-75
2023/01/18 00:00:29;;;;;;;382.73;184.82;;;;;;;;;;340698;29;1643;-76
2023/01/18 00:00:40;;;;;;;384.73;184.57;;;;;;;;;;339926;29;2018;-75
2023/01/18 00:00:51;;;;;;;384.97;181.67;;;;;;;;;;339437;29;872;-75
2023/01/18 00:01:02;;;;;;;381.63;179.00;;;;;;;;;;339358;29;1388;-76
2023/01/18 00:01:12;;;;;;;379.47;182.80;;;;;;;;;;339102;29;2082;-75
2023/01/18 00:01:22;;;;;;;381.10;184.70;;;;;;;;;;338682;29;1955;-75
2023/01/18 00:01:35;;;;;;;381.50;185.47;;;;;;;;;;339599;29;925;-75
2023/01/18 00:01:45;;;;;;;379.98;182.65;;;;;;;;;;336891;29;2125;-76
2023/01/18 00:01:55;;;;;;;380.63;182.03;;;;;;;;;;333364;29;1625;-75
2023/01/18 00:02:05;;;;;;;377.73;176.43;;;;;;;;;;330957;29;1935;-75
2023/01/18 00:02:16;;;;;;;376.13;174.60;;;;;;;;;;330608;29;1012;-75
2023/01/18 00:02:26;;;;;;;373.50;170.87;;;;;;;;;;332646;29;1965;-75
2023/01/18 00:02:36;;;;;;;373.90;165.70;;;;;;;;;;333916;29;924;-75
2023/01/18 00:02:48;;;;;;;374.17;162.97;;;;;;;;;;334287;29;2165;-75
2023/01/18 00:02:58;;;;;;;376.38;168.68;;;;;;;;;;332868;29;1476;-75
2023/01/18 00:03:11;;;;;;;376.43;170.80;;;;;;;;;;330989;29;2011;-75
2023/01/18 00:03:24;;;;;;;374.52;164.48;;;;;;;;;;331225;29;2030;-75
2023/01/18 00:03:34;;;;;;;374.53;164.27;;;;;;;;;;330451;29;1806;-75
2023/01/18 00:03:45;;;;;;;374.43;167.70;;;;;;;;;;329301;29;2142;-75
2023/01/18 00:03:55;;;;;;;377.87;170.17;;;;;;;;;;326792;29;2126;-75
2023/01/18 00:04:05;;;;;;;379.23;172.75;;;;;;;;;;323379;30;2190;-76
2023/01/18 00:04:15;;;;;;;380.00;177.17;;;;;;;;;;325277;30;2165;-76
2023/01/18 00:04:25;;;;;;;377.63;176.90;;;;;;;;;;326283;30;1693;-76
2023/01/18 00:04:37;;;;;;;374.47;173.43;;;;;;;;;;322701;30;1558;-76
2023/01/18 00:04:47;;;;;;;372.02;168.43;;;;;;;;;;324555;30;980;-77
2023/01/18 00:04:57;;;;;;;374.83;170.37;;;;;;;;;;324255;30;1420;-76
2023/01/18 00:05:08;;;;;;;379.93;179.53;;;;;;;;;;323307;30;2153;-77
2023/01/18 00:05:21;;;;;;;383.75;183.63;;;;;;;;;;325087;30;1851;-75
2023/01/18 00:05:32;;;;;;;379.90;180.63;;;;;;;;;;321919;30;2096;-75
2023/01/18 00:05:42;;;;;;;373.67;172.82;;;;;;;;;;320777;30;2337;-74
2023/01/18 00:05:53;;;;;;;372.93;167.67;;;;;;;;;;321207;30;2553;-75
2023/01/18 00:06:04;;;;;;;373.90;165.63;;;;;;;;;;320587;30;2550;-75
2023/01/18 00:06:15;;;;;;;378.27;170.45;;;;;;;;;;318454;31;2282;-75
2023/01/18 00:06:26;;;;;;;379.33;173.03;;;;;;;;;;317029;31;2870;-75
2023/01/18 00:06:36;;;;;;;377.95;173.90;;;;;;;;;;314856;31;1820;-75
2023/01/18 00:06:47;;;;;;;375.97;171.93;;;;;;;;;;313953;31;1315;-75
2023/01/18 00:06:57;;;;;;;378.67;176.03;;;;;;;;;;314354;31;1987;-75
2023/01/18 00:07:07;;;;;;;381.60;179.77;;;;;;;;;;314704;31;1935;-74
2023/01/18 00:07:17;;;;;;;382.80;177.37;;;;;;;;;;314026;31;1196;-75
2023/01/18 00:07:28;;;;;;;382.10;173.17;;;;;;;;;;309199;31;2348;-75
2023/01/18 00:07:38;;;;;;;381.17;171.52;;;;;;;;;;307691;31;2948;-75
2023/01/18 00:07:48;;;;;;;380.63;173.97;;;;;;;;;;310160;31;3450;-75
2023/01/18 00:07:59;;;;;;;378.23;172.98;;;;;;;;;;313959;31;1471;-75
2023/01/18 00:08:09;;;;;;;378.07;175.43;;;;;;;;;;310528;31;3331;-75
2023/01/18 00:08:20;;;;;;;378.13;174.48;;;;;;;;;;309436;31;3350;-75
2023/01/18 00:08:30;;;;;;;380.07;177.90;;;;;;;;;;309460;31;2132;-75
2023/01/18 00:08:43;;;;;;;380.55;175.88;;;;;;;;;;309887;31;3563;-75
2023/01/18 00:08:53;;;;;;;377.98;174.10;;;;;;;;;;310309;31;2351;-75
2023/01/18 00:09:04;;;;;;;378.27;173.83;;;;;;;;;;309964;31;2070;-75
2023/01/18 00:09:14;;;;;;;377.47;172.23;;;;;;;;;;307292;32;2032;-75
2023/01/18 00:09:24;;;;;;;378.47;174.27;;;;;;;;;;307218;31;2867;-75
2023/01/18 00:09:34;;;;;;;377.30;170.82;;;;;;;;;;305021;31;3391;-75
2023/01/18 00:09:44;;;;;;;378.00;172.60;;;;;;;;;;308384;32;2512;-76
2023/01/18 00:09:55;;;;;;;378.30;172.37;;;;;;;;;;306693;31;3929;-75
2023/01/18 00:10:06;;;;;;;380.52;175.30;;;;;;;;;;305983;32;4752;-75
2023/01/18 00:10:16;;;;;;;379.87;174.03;;;;;;;;;;306358;32;1494;-76
2023/01/18 00:10:26;;;;;;;381.97;174.93;;;;;;;;;;307830;31;4788;-76
2023/01/18 00:10:36;;;;;;;381.80;174.50;;;;;;;;;;307914;31;4328;-76
2023/01/18 00:10:47;;;;;;;380.53;170.60;;;;;;;;;;306362;32;1223;-76
2023/01/18 00:11:06;;;;;;;378.23;168.47;;;;;;;;;;303598;32;4698;-75
2023/01/18 00:11:17;;;;;;;380.17;167.35;;;;;;;;;;303250;32;2180;-75
2023/01/18 00:11:28;;;;;;;378.17;169.15;;;;;;;;;;299226;32;2885;-75
2023/01/18 00:11:39;;;;;;;376.63;172.73;;;;;;;;;;299064;32;4192;-75
2023/01/18 00:11:49;;;;;;;375.83;174.25;;;;;;;;;;298884;32;5148;-75
2023/01/18 00:11:59;;;;;;;376.90;172.70;;;;;;;;;;297110;33;2194;-75
2023/01/18 00:12:10;;;;;;;379.50;172.93;;;;;;;;;;295285;33;5596;-75
2023/01/18 00:12:20;;;;;;;381.00;173.17;;;;;;;;;;293401;33;6387;-75
2023/01/18 00:12:31;;;;;;;380.05;168.25;;;;;;;;;;295098;33;2213;-75
2023/01/18 00:12:42;;;;;;;377.42;166.52;;;;;;;;;;292447;33;6777;-76
2023/01/18 00:12:52;;;;;;;378.85;170.18;;;;;;;;;;291677;33;6140;-75
2023/01/18 00:13:02;;;;;;;380.00;175.40;;;;;;;;;;292141;33;800;-75
2023/01/18 00:13:12;;;;;;;379.13;171.37;;;;;;;;;;287972;33;6567;-75
2023/01/18 00:13:23;;;;;;;380.93;174.13;;;;;;;;;;288479;33;4875;-75
2023/01/18 00:13:33;;;;;;;382.60;180.70;;;;;;;;;;288120;34;1301;-76
2023/01/18 00:13:43;;;;;;;387.87;189.60;;;;;;;;;;281893;34;2039;-75
2023/01/18 00:13:53;;;;;;;388.67;195.80;;;;;;;;;;280253;34;6117;-75
2023/01/18 00:14:04;;;;;;;387.63;190.57;;;;;;;;;;281427;34;7430;-75
2023/01/18 00:14:14;;;;;;;382.90;182.93;;;;;;;;;;281619;35;1511;-75
2023/01/18 00:14:24;;;;;;;381.20;178.63;;;;;;;;;;276397;35;8858;-76
2023/01/18 00:14:34;;;;;;;382.15;183.10;;;;;;;;;;273957;35;10186;-76
2023/01/18 00:14:44;;;;;;;384.50;192.10;;;;;;;;;;277515;35;2072;-76
2023/01/18 00:14:55;;;;;;;381.90;188.80;;;;;;;;;;275948;35;9250;-76
2023/01/18 00:15:06;;;;;;;379.85;186.40;;;;;;;;;;276448;35;8229;-75
2023/01/18 00:15:16;;;;;;;377.38;181.68;;;;;;;;;;279887;35;2074;-75
2023/01/18 00:16:56;;;;;;;367.59;163.91;;;;;;;;;;2488283;27;20277;-75
2023/01/18 00:17:06;;;;;;;378.27;180.37;;;;;;;;;;352198;28;949;-75
2023/01/18 00:17:16;;;;;;;377.80;183.50;;;;;;;;;;351566;28;1445;-75
2023/01/18 00:17:26;;;;;;;377.17;179.15;;;;;;;;;;351381;28;1516;-76
2023/01/18 00:17:51;;;;;;;374.63;169.93;;;;;;;;;;350131;28;1200;-76
2023/01/18 00:18:02;;;;;;;372.90;168.77;;;;;;;;;;348785;28;2130;-75
2023/01/18 00:18:12;;;;;;;373.85;169.90;;;;;;;;;;347443;28;2069;-76
2023/01/18 00:18:22;;;;;;;371.73;166.57;;;;;;;;;;347144;28;1239;-75
2023/01/18 00:18:34;;;;;;;370.73;161.63;;;;;;;;;;348157;28;2135;-75
2023/01/18 00:18:54;;;;;;;371.65;164.70;;;;;;;;;;350120;28;1995;-75
2023/01/18 00:19:05;;;;;;;376.92;174.32;;;;;;;;;;347420;28;1275;-75
2023/01/18 00:19:15;;;;;;;376.63;175.40;;;;;;;;;;345975;28;2148;-75
2023/01/18 00:19:26;;;;;;;373.77;169.20;;;;;;;;;;346086;28;1545;-75
2023/01/18 00:19:36;;;;;;;372.87;166.07;;;;;;;;;;345820;28;860;-74
2023/01/18 00:19:46;;;;;;;372.77;164.43;;;;;;;;;;345954;28;2046;-74
2023/01/18 00:19:56;;;;;;;371.57;162.37;;;;;;;;;;345953;28;2049;-74
2023/01/18 00:20:07;;;;;;;372.03;163.67;;;;;;;;;;344858;28;1038;-75
2023/01/18 00:20:22;;;;;;;372.00;164.50;;;;;;;;;;345142;28;2074;-75
2023/01/18 00:20:32;;;;;;;372.70;166.07;;;;;;;;;;346421;28;2148;-75
2023/01/18 00:20:42;;;;;;;379.03;165.53;;;;;;;;;;347396;28;1427;-76
2023/01/18 00:20:52;;;;;;;380.67;169.30;;;;;;;;;;344906;28;1088;-76
2023/01/18 00:21:03;;;;;;;381.07;170.37;;;;;;;;;;345553;28;2014;-76
2023/01/18 00:21:13;;;;;;;372.73;166.70;;;;;;;;;;349550;28;2047;-76
2023/01/18 00:21:24;;;;;;;370.00;166.70;;;;;;;;;;348880;28;1454;-76
2023/01/18 00:21:34;;;;;;;369.33;168.18;;;;;;;;;;347302;28;1365;-76
2023/01/18 00:21:45;;;;;;;372.57;179.30;;;;;;;;;;346989;28;1894;-78
2023/01/18 00:21:56;;;;;;;373.63;180.93;;;;;;;;;;347245;28;1546;-76
2023/01/18 00:22:06;;;;;;;373.15;176.50;;;;;;;;;;346045;28;1348;-75
2023/01/18 00:22:16;;;;;;;372.47;171.13;;;;;;;;;;345246;28;1637;-75
2023/01/18 00:22:27;;;;;;;369.97;165.23;;;;;;;;;;347641;28;2103;-75
2023/01/18 00:22:37;;;;;;;372.57;170.77;;;;;;;;;;348151;28;1090;-75
2023/01/18 00:22:47;;;;;;;375.17;173.18;;;;;;;;;;346285;28;2317;-75
2023/01/18 00:22:58;;;;;;;375.70;173.97;;;;;;;;;;346734;28;2047;-75
2023/01/18 00:23:08;;;;;;;375.27;172.27;;;;;;;;;;344890;28;999;-75
2023/01/18 00:23:18;;;;;;;375.60;172.27;;;;;;;;;;347352;28;1499;-75
2023/01/18 00:23:28;;;;;;;376.13;174.23;;;;;;;;;;349549;28;2051;-76
2023/01/18 00:23:38;;;;;;;374.17;171.47;;;;;;;;;;347382;28;2013;-75
2023/01/18 00:23:49;;;;;;;372.40;172.67;;;;;;;;;;346735;28;1014;-75
2023/01/18 00:23:59;;;;;;;375.58;170.88;;;;;;;;;;346109;28;2233;-75
2023/01/18 00:24:10;;;;;;;377.47;172.53;;;;;;;;;;346119;28;1018;-76
2023/01/18 00:24:21;;;;;;;374.85;167.23;;;;;;;;;;346192;28;914;-76
2023/01/18 00:24:31;;;;;;;377.88;167.57;;;;;;;;;;343979;28;2039;-75
2023/01/18 00:24:42;;;;;;;389.92;166.00;;;;;;;;;;344684;28;2079;-75
2023/01/18 00:24:52;;;;;;;390.90;167.70;;;;;;;;;;339891;28;1263;-74
2023/01/18 00:25:03;;;;;;;379.53;168.57;;;;;;;;;;340000;28;1477;-75
2023/01/18 00:25:13;;;;;;;373.42;168.43;;;;;;;;;;341381;28;2066;-75
2023/01/18 00:25:23;;;;;;;376.27;172.57;;;;;;;;;;343358;28;1349;-75
2023/01/18 00:25:33;;;;;;;375.95;170.77;;;;;;;;;;342538;28;2061;-75
2023/01/18 00:25:43;;;;;;;375.37;172.17;;;;;;;;;;343443;28;2107;-75
2023/01/18 00:25:58;;;;;;;372.43;168.93;;;;;;;;;;343062;28;1325;-75
2023/01/18 00:26:08;;;;;;;370.65;168.60;;;;;;;;;;340694;29;1273;-75
2023/01/18 00:26:19;;;;;;;370.83;169.23;;;;;;;;;;338529;29;2063;-75
2023/01/18 00:26:29;;;;;;;371.80;169.02;;;;;;;;;;340611;29;2068;-75
2023/01/18 00:26:40;;;;;;;374.60;172.20;;;;;;;;;;344613;28;1304;-75
2023/01/18 00:26:50;;;;;;;373.90;170.88;;;;;;;;;;340323;28;3210;-75
2023/01/18 00:27:00;;;;;;;373.90;169.83;;;;;;;;;;337413;29;2020;-75
2023/01/18 00:27:10;;;;;;;373.03;171.90;;;;;;;;;;335675;29;1048;-75
2023/01/18 00:27:20;;;;;;;373.70;170.17;;;;;;;;;;332477;29;1702;-75
2023/01/18 00:27:30;;;;;;;375.10;173.35;;;;;;;;;;332521;29;1972;-76
2023/01/18 00:27:47;;;;;;;376.77;171.87;;;;;;;;;;328105;29;1456;-76
2023/01/18 00:27:58;;;;;;;378.85;176.30;;;;;;;;;;324487;30;2154;-76
2023/01/18 00:28:08;;;;;;;376.10;174.07;;;;;;;;;;324877;30;1667;-76
2023/01/18 00:28:21;;;;;;;376.00;172.43;;;;;;;;;;325605;30;2102;-75
2023/01/18 00:28:32;;;;;;;376.00;169.52;;;;;;;;;;326815;30;2300;-75
2023/01/18 00:28:42;;;;;;;376.23;171.43;;;;;;;;;;325625;30;1621;-75
2023/01/18 00:28:54;;;;;;;372.67;171.73;;;;;;;;;;324212;30;2121;-75
2023/01/18 00:29:04;;;;;;;370.00;165.63;;;;;;;;;;323248;30;2275;-75
2023/01/18 00:29:14;;;;;;;369.50;166.07;;;;;;;;;;323269;30;1586;-74
2023/01/18 00:29:24;;;;;;;373.07;166.93;;;;;;;;;;322175;30;916;-74
2023/01/18 00:29:35;;;;;;;374.03;170.07;;;;;;;;;;316729;30;2393;-74
2023/01/18 00:29:45;;;;;;;376.70;173.10;;;;;;;;;;314005;31;2869;-74
2023/01/18 00:29:58;;;;;;;374.40;175.13;;;;;;;;;;311788;31;1208;-74
2023/01/18 00:30:09;;;;;;;375.25;174.55;;;;;;;;;;314552;31;2639;-74
2023/01/18 00:30:22;;;;;;;374.52;170.43;;;;;;;;;;314523;31;2152;-74
2023/01/18 00:30:32;;;;;;;373.10;168.43;;;;;;;;;;316712;30;2100;-76
2023/01/18 00:30:42;;;;;;;372.17;165.97;;;;;;;;;;319589;30;1539;-75
2023/01/18 00:30:52;;;;;;;372.47;168.67;;;;;;;;;;318649;30;2057;-75
2023/01/18 00:31:10;;;;;;;374.07;167.43;;;;;;;;;;315012;31;2648;-75
2023/01/18 00:31:20;;;;;;;376.02;166.60;;;;;;;;;;314560;31;3130;-75
2023/01/18 00:31:32;;;;;;;377.42;173.05;;;;;;;;;;317074;30;3079;-75
2023/01/18 00:31:43;;;;;;;379.30;175.25;;;;;;;;;;319545;30;2168;-75
2023/01/18 00:31:54;;;;;;;383.30;179.43;;;;;;;;;;317677;30;3316;-76
2023/01/18 00:32:04;;;;;;;381.90;178.45;;;;;;;;;;318540;30;3807;-75
2023/01/18 00:32:15;;;;;;;375.73;175.87;;;;;;;;;;319617;30;2141;-75
2023/01/18 00:32:26;;;;;;;372.40;170.75;;;;;;;;;;316343;31;2073;-75
2023/01/18 00:32:36;;;;;;;372.20;169.53;;;;;;;;;;316338;31;2222;-75
2023/01/18 00:32:47;;;;;;;377.60;177.30;;;;;;;;;;313974;31;2199;-75
2023/01/18 00:33:00;;;;;;;377.48;175.85;;;;;;;;;;314936;31;2037;-75
2023/01/18 00:33:10;;;;;;;380.60;176.32;;;;;;;;;;316568;31;988;-75
2023/01/18 00:33:20;;;;;;;378.37;171.40;;;;;;;;;;315068;31;3658;-75
2023/01/18 00:33:31;;;;;;;372.42;172.10;;;;;;;;;;314074;31;4141;-75
2023/01/18 00:33:42;;;;;;;372.00;171.73;;;;;;;;;;313016;31;1495;-75
2023/01/18 00:33:52;;;;;;;374.60;178.07;;;;;;;;;;314157;31;4072;-75
2023/01/18 00:34:02;;;;;;;377.23;187.60;;;;;;;;;;312490;31;4027;-75
2023/01/18 00:34:12;;;;;;;379.88;187.57;;;;;;;;;;309455;31;2178;-75
2023/01/18 00:34:22;;;;;;;381.17;181.97;;;;;;;;;;306110;31;4039;-75
2023/01/18 00:34:33;;;;;;;379.80;174.50;;;;;;;;;;306190;31;3951;-75
2023/01/18 00:34:43;;;;;;;377.03;173.07;;;;;;;;;;309581;31;1296;-75
2023/01/18 00:34:53;;;;;;;373.90;172.40;;;;;;;;;;307477;32;3132;-75
2023/01/18 00:35:06;;;;;;;374.73;172.17;;;;;;;;;;305605;32;3236;-75
2023/01/18 00:35:20;;;;;;;374.38;174.75;;;;;;;;;;304850;32;3325;-75
2023/01/18 00:35:31;;;;;;;370.35;166.93;;;;;;;;;;305953;32;5103;-75
2023/01/18 00:35:41;;;;;;;369.83;168.55;;;;;;;;;;306116;32;2079;-75
2023/01/18 00:36:00;;;;;;;369.30;168.80;;;;;;;;;;301926;32;5503;-75
2023/01/18 00:36:11;;;;;;;374.85;171.95;;;;;;;;;;296877;33;1849;-75
2023/01/18 00:36:21;;;;;;;376.43;173.17;;;;;;;;;;296968;33;5397;-75
2023/01/18 00:36:31;;;;;;;374.53;168.03;;;;;;;;;;296641;33;5509;-75
2023/01/18 00:36:41;;;;;;;373.13;169.48;;;;;;;;;;295936;33;2108;-75
2023/01/18 00:36:52;;;;;;;372.77;169.00;;;;;;;;;;292893;33;5609;-75
2023/01/18 00:37:02;;;;;;;372.27;170.03;;;;;;;;;;291762;33;3827;-76
2023/01/18 00:37:12;;;;;;;373.47;172.27;;;;;;;;;;291895;33;2061;-76
2023/01/18 00:37:25;;;;;;;374.63;174.02;;;;;;;;;;291653;33;5327;-76
2023/01/18 00:37:36;;;;;;;373.45;172.82;;;;;;;;;;290014;33;5579;-75
2023/01/18 00:37:50;;;;;;;372.90;170.77;;;;;;;;;;288530;33;7264;-75
2023/01/18 00:38:00;;;;;;;374.13;172.18;;;;;;;;;;284034;34;7928;-75
2023/01/18 00:38:12;;;;;;;378.63;176.73;;;;;;;;;;284472;34;1267;-76
2023/01/18 00:38:22;;;;;;;378.58;175.05;;;;;;;;;;283016;34;8287;-76
2023/01/18 00:38:32;;;;;;;376.20;177.40;;;;;;;;;;283150;34;8142;-75
2023/01/18 00:38:42;;;;;;;375.97;176.63;;;;;;;;;;286077;34;2097;-75
2023/01/18 00:38:53;;;;;;;376.42;177.30;;;;;;;;;;282292;34;7777;-75
2023/01/18 00:39:03;;;;;;;376.40;175.60;;;;;;;;;;283726;34;8527;-75
2023/01/18 00:39:14;;;;;;;374.07;175.40;;;;;;;;;;287743;34;2126;-75
2023/01/18 00:39:25;;;;;;;373.30;172.68;;;;;;;;;;284597;34;6359;-75
2023/01/18 00:43:38;;;;;;;385.98;170.05;;;;;;;9.71;100.00;98169.00;347444;28;1320;-75
2023/01/18 00:43:49;;;;;;;377.63;171.10;;;;;;;9.71;100.00;98176.84;345066;28;1990;-75
2023/01/18 00:43:59;;;;;;;377.00;171.03;;;;;;;9.71;100.00;98179.47;343189;28;2168;-75
2023/01/18 00:44:10;;;;;;;376.60;172.80;;;;;;;9.69;100.00;98182.16;344010;28;1570;-76
2023/01/18 00:44:20;;;;;;;373.30;175.90;;;;;;;9.68;100.00;98181.31;343047;28;2179;-76
2023/01/18 00:44:30;;;;;;;376.25;174.88;;;;;;;9.68;100.00;98186.56;341737;28;2160;-75
2023/01/18 00:44:41;;;;;;;380.97;172.83;;;;;;;9.70;100.00;98183.00;344848;28;1205;-75
2023/01/18 00:44:51;;;;;;;381.60;173.05;;;;;;;9.68;100.00;98183.94;340817;28;2172;-75
2023/01/18 00:45:02;;;;;;;377.53;171.83;;;;;;;9.70;100.00;98188.22;342613;28;2013;-76
2023/01/18 00:45:12;;;;;;;374.38;172.30;;;;;;;9.69;100.00;98190.00;344386;28;2051;-76
2023/01/18 00:45:23;;;;;;;377.65;173.02;;;;;;;9.68;100.00;98191.78;339602;29;996;-76
2023/01/18 00:45:33;;;;;;;378.90;173.90;;;;;;;9.70;100.00;98193.47;343768;28;2036;-75
2023/01/18 00:45:43;;;;;;;377.70;176.43;;;;;;;9.70;100.00;98189.06;346376;28;2121;-75
2023/01/18 00:45:54;;;;;;;375.92;177.10;;;;;;;9.70;100.00;98193.47;344840;28;1362;-75
2023/01/18 00:46:11;;;;;;;375.17;174.33;;;;;;;9.70;100.00;98190.84;345339;28;1945;-76
2023/01/18 00:46:23;;;;;;;374.15;166.88;;;;;;;9.70;100.00;98196.91;344727;28;1794;-76
2023/01/18 00:46:33;;;;;;;373.00;164.38;;;;;;;9.72;100.00;98197.66;341517;28;2027;-76
2023/01/18 00:46:43;;;;;;;373.70;167.25;;;;;;;9.73;100.00;98195.88;341513;28;2056;-76
2023/01/18 00:46:54;;;;;;;376.20;168.10;;;;;;;9.74;100.00;98194.97;344894;28;790;-75
2023/01/18 00:47:05;;;;;;;375.42;169.02;;;;;;;9.74;100.00;98202.78;343350;28;2090;-75
2023/01/18 00:47:15;;;;;;;374.60;168.73;;;;;;;9.74;100.00;98192.34;339912;29;2067;-75
2023/01/18 00:47:26;;;;;;;373.37;173.63;;;;;;;9.74;100.00;98200.19;340201;29;1504;-75
2023/01/18 00:47:36;;;;;;;374.52;178.35;;;;;;;9.75;100.00;98199.25;341896;28;2143;-75
2023/01/18 00:47:47;;;;;;;373.30;176.73;;;;;;;9.75;100.00;98199.25;342922;28;2608;-75
2023/01/18 00:47:57;;;;;;;375.80;175.20;;;;;;;9.75;100.00;98192.25;344573;28;1327;-75
2023/01/18 00:48:08;;;;;;;375.70;171.53;;;;;;;9.76;100.00;98198.31;340859;29;976;-75
2023/01/18 00:48:18;;;;;;;376.27;173.45;;;;;;;9.75;100.00;98196.63;339524;29;2046;-75
2023/01/18 00:48:28;;;;;;;374.93;174.93;;;;;;;9.75;100.00;98197.47;339339;29;2039;-75
2023/01/18 00:48:39;;;;;;;375.05;176.02;;;;;;;9.76;100.00;98198.31;340794;29;1205;-75
2023/01/18 00:48:50;;;;;;;375.45;174.55;;;;;;;9.76;100.00;98198.31;341726;28;2077;-75
2023/01/18 00:49:00;;;;;;;376.27;175.20;;;;;;;9.76;100.00;98195.72;338931;29;1791;-75
2023/01/18 00:49:11;;;;;;;375.70;177.80;;;;;;;9.77;100.00;98197.38;339646;29;878;-75
2023/01/18 00:49:22;;;;;;;373.80;176.27;;;;;;;9.76;100.00;98203.53;338027;29;2145;-75
2023/01/18 00:49:32;;;;;;;370.33;170.77;;;;;;;9.76;100.00;98203.53;340408;29;2191;-75
2023/01/18 00:49:43;;;;;;;372.33;173.05;;;;;;;9.77;100.00;98202.63;339641;28;1331;-75
2023/01/18 00:49:53;;;;;;;374.63;176.93;;;;;;;9.78;100.00;98206.91;342112;28;1244;-75
2023/01/18 00:50:04;;;;;;;375.13;176.97;;;;;;;9.78;100.00;98201.69;343201;28;1495;-75
2023/01/18 00:50:15;;;;;;;375.48;173.63;;;;;;;9.78;100.00;98201.69;342099;28;2781;-75
2023/01/18 00:50:25;;;;;;;375.00;171.82;;;;;;;9.78;100.00;98207.75;338216;29;1316;-75
2023/01/18 00:50:36;;;;;;;378.23;173.00;;;;;;;9.79;100.00;98205.97;335513;29;1933;-75
2023/01/18 00:50:46;;;;;;;379.13;176.00;;;;;;;9.79;100.00;98198.13;339543;28;2037;-75
2023/01/18 00:50:57;;;;;;;380.20;177.57;;;;;;;9.80;100.00;98199.81;341998;28;1353;-76
2023/01/18 00:51:12;;;;;;;376.05;178.18;;;;;;;9.79;100.00;98192.91;339458;29;926;-75
2023/01/18 00:51:23;;;;;;;378.95;179.90;;;;;;;9.79;100.00;98198.13;337825;29;2013;-75
2023/01/18 00:51:33;;;;;;;380.70;181.68;;;;;;;9.80;100.00;98205.03;335668;29;1494;-75
2023/01/18 00:51:44;;;;;;;380.97;182.17;;;;;;;9.79;100.00;98203.38;337204;29;1555;-75
2023/01/18 00:51:54;;;;;;;379.03;180.43;;;;;;;9.79;100.00;98198.13;335522;29;1255;-75
2023/01/18 00:52:05;;;;;;;379.02;178.57;;;;;;;9.78;100.00;98201.69;338103;29;1682;-75
2023/01/18 00:52:15;;;;;;;379.93;178.27;;;;;;;9.76;100.00;98200.94;335433;29;1886;-75
2023/01/18 00:52:25;;;;;;;378.30;176.93;;;;;;;9.75;100.00;98204.47;331812;29;1307;-75
2023/01/18 00:52:36;;;;;;;377.63;175.50;;;;;;;9.74;100.00;98201.03;337499;29;1960;-75
2023/01/18 00:52:47;;;;;;;378.13;177.30;;;;;;;9.75;100.00;98194.03;336383;29;2333;-75
2023/01/18 00:52:58;;;;;;;383.90;182.10;;;;;;;9.77;100.00;98205.22;335919;29;1697;-75
2023/01/18 00:53:09;;;;;;;390.00;188.25;;;;;;;9.78;100.00;98199.06;332968;29;1542;-75
2023/01/18 00:53:19;;;;;;;397.40;190.55;;;;;;;9.79;100.00;98203.38;334811;29;1987;-75
2023/01/18 00:53:29;;;;;;;402.03;196.07;;;;;;;9.80;100.00;98191.97;335611;29;1846;-75
2023/01/18 00:53:42;;;;;;;407.57;208.37;;;;;;;9.81;100.00;98193.66;334303;29;1272;-75
2023/01/18 00:53:53;;;;;;;406.78;214.22;;;;;;;9.82;100.00;98197.94;330228;29;2060;-75
2023/01/18 00:54:03;;;;;;;408.90;208.33;;;;;;;9.82;100.00;98193.56;328593;29;2086;-75
2023/01/18 00:54:13;;;;;;;406.80;197.47;;;;;;;9.84;100.00;98196.94;326809;30;2370;-75
2023/01/18 00:54:24;;;;;;;408.63;194.88;;;;;;;9.85;100.00;98195.16;325570;30;1294;-75
2023/01/18 00:54:34;;;;;;;408.03;191.97;;;;;;;9.86;100.00;98199.44;324632;30;3079;-75
2023/01/18 00:54:45;;;;;;;408.05;189.77;;;;;;;9.86;100.00;98191.59;325526;30;2640;-75
2023/01/18 00:54:55;;;;;;;408.03;190.20;;;;;;;9.87;100.00;98195.91;325577;30;1277;-75
2023/01/18 00:55:06;;;;;;;406.25;193.73;;;;;;;9.87;100.00;98190.69;325099;30;2784;-75
2023/01/18 00:55:17;;;;;;;406.50;201.25;;;;;;;9.88;100.00;98197.59;326039;30;2051;-75
2023/01/18 00:55:27;;;;;;;410.43;204.93;;;;;;;9.89;100.00;98199.25;327737;30;1339;-75
2023/01/18 00:55:37;;;;;;;413.77;200.50;;;;;;;9.89;100.00;98189.66;329191;30;2115;-75
2023/01/18 00:55:48;;;;;;;417.67;197.07;;;;;;;9.88;100.00;98187.97;326033;30;2050;-75
2023/01/18 00:55:58;;;;;;;410.20;191.57;;;;;;;9.90;100.00;98190.50;325007;30;2706;-75
2023/01/18 00:56:10;;;;;;;407.93;192.53;;;;;;;9.88;100.00;98192.34;326809;30;2216;-76
2023/01/18 00:56:21;;;;;;;399.88;190.13;;;;;;;9.90;100.00;98200.94;325969;30;2800;-75
2023/01/18 00:56:31;;;;;;;398.83;190.68;;;;;;;9.91;100.00;98192.16;322772;30;3166;-75
2023/01/18 00:56:41;;;;;;;399.60;191.03;;;;;;;9.90;100.00;98191.34;321604;30;3335;-74
2023/01/18 00:56:52;;;;;;;397.17;185.45;;;;;;;9.91;100.00;98194.78;320877;30;2209;-74
2023/01/18 00:57:02;;;;;;;395.50;182.60;;;;;;;9.91;100.00;98197.41;320017;30;3345;-74
2023/01/18 00:57:13;;;;;;;392.70;186.73;;;;;;;9.90;100.00;98191.34;317007;30;3291;-75
2023/01/18 00:57:23;;;;;;;391.70;187.47;;;;;;;9.92;100.00;98193.84;315025;31;2066;-75
2023/01/18 00:57:33;;;;;;;387.73;184.13;;;;;;;9.93;100.00;98190.31;315535;31;2416;-75
2023/01/18 00:57:44;;;;;;;384.63;180.83;;;;;;;9.92;100.00;98194.69;312386;31;2088;-75
2023/01/18 00:57:54;;;;;;;385.33;184.73;;;;;;;9.94;100.00;98194.59;312966;31;889;-74
2023/01/18 00:58:05;;;;;;;390.33;188.70;;;;;;;9.94;100.00;98192.81;316844;31;3076;-74
2023/01/18 00:58:15;;;;;;;388.83;187.33;;;;;;;9.95;100.00;98193.66;313928;31;3815;-75
2023/01/18 00:58:27;;;;;;;387.55;186.27;;;;;;;9.97;100.00;98192.59;312900;31;1503;-75
2023/01/18 00:58:37;;;;;;;383.42;187.20;;;;;;;9.97;100.00;98191.75;309676;31;2166;-75
2023/01/18 00:58:48;;;;;;;383.43;186.53;;;;;;;9.98;100.00;98194.28;305933;32;4452;-75
2023/01/18 00:58:58;;;;;;;379.83;180.80;;;;;;;10.00;100.00;98186.34;305153;32;4759;-74
2023/01/18 00:59:08;;;;;;;380.07;181.77;;;;;;;10.00;100.00;98192.41;307422;32;2471;-74
2023/01/18 00:59:19;;;;;;;378.63;178.70;;;;;;;10.01;100.00;98193.25;304383;32;4172;-76
2023/01/18 00:59:29;;;;;;;379.97;179.73;;;;;;;9.99;100.00;98195.97;303192;32;4547;-74
2023/01/18 00:59:40;;;;;;;380.43;184.67;;;;;;;10.00;100.00;98191.59;305300;32;1212;-74
2023/01/18 00:59:50;;;;;;;383.60;191.70;;;;;;;9.99;100.00;98195.97;302945;32;3648;-77
2023/01/18 01:00:00;;;;;;;384.30;191.90;;;;;;;9.99;100.00;98195.13;299944;32;3216;-75
2023/01/18 01:00:14;;;;;;;383.13;187.40;;;;;;;9.99;100.00;98190.75;297041;33;866;-75
2023/01/18 01:00:25;;;;;;;382.10;184.77;;;;;;;10.00;100.00;98188.97;297537;33;989;-75
2023/01/18 01:00:37;;;;;;;383.95;193.48;;;;;;;10.01;100.00;98193.25;294224;33;5187;-75
2023/01/18 01:00:49;;;;;;;382.70;194.88;;;;;;;10.02;100.00;98189.72;292229;33;5694;-75
2023/01/18 01:00:59;;;;;;;381.33;195.20;;;;;;;10.02;100.00;98195.78;292182;33;6507;-75
2023/01/18 01:01:10;;;;;;;381.77;193.60;;;;;;;10.03;100.00;98186.16;295121;33;886;-75
2023/01/18 01:01:20;;;;;;;382.42;191.52;;;;;;;10.03;100.00;98191.41;295161;33;6574;-75
2023/01/18 01:01:31;;;;;;;382.47;186.33;;;;;;;10.03;100.00;98196.63;293362;33;6028;-75
2023/01/18 01:01:42;;;;;;;378.83;179.93;;;;;;;10.02;100.00;98194.94;290398;33;2466;-75
2023/01/18 01:01:53;;;;;;;380.55;185.90;;;;;;;10.01;100.00;98193.25;290146;34;2099;-75
2023/01/18 01:02:03;;;;;;;379.20;187.48;;;;;;;10.00;100.00;98188.97;284985;34;4927;-75
2023/01/18 01:02:13;;;;;;;380.97;191.97;;;;;;;9.99;100.00;98189.91;282578;34;5139;-75
2023/01/18 01:02:24;;;;;;;378.55;187.32;;;;;;;9.98;100.00;98183.00;283717;34;869;-75
2023/01/18 01:02:39;;;;;;;379.30;186.83;;;;;;;9.98;100.00;98183.00;282282;34;6509;-76
2023/01/18 01:02:50;;;;;;;383.38;186.35;;;;;;;9.98;100.00;98188.22;279674;34;7777;-76
2023/01/18 01:03:00;;;;;;;381.35;183.13;;;;;;;9.98;100.00;98188.22;277920;35;9687;-76
2023/01/18 01:03:13;;;;;;;377.33;178.70;;;;;;;10.01;100.00;98180.19;278252;35;1253;-76
2023/01/18 01:03:23;;;;;;;379.40;185.57;;;;;;;10.01;100.00;98178.41;277063;35;2157;-76